sensor_id;sensor_type;location;lat;lon;timestamp;pressure;altitude;pressure_sealevel;temperature
47484;BMP280;54076;50.322;18.650;2022-11-18T00:04:07;97775.27;;;3.99
47484;BMP280;54076;50.322;18.650;2022-11-18T00:09:08;97768.30;;;4.12
47484;BMP280;54076;50.322;18.650;2022-11-18T00:14:16;97770.06;;;4.17
47484;BMP280;54076;50.322;18.650;2022-11-18T00:19:26;97773.02;;;4.14
47484;BMP280;54076;50.322;18.650;2022-11-18T00:24:27;97776.98;;;3.94
47484;BMP280;54076;50.322;18.650;2022-11-18T00:29:29;97786.06;;;3.97
47484;BMP280;54076;50.322;18.650;2022-11-18T00:34:31;97788.69;;;4.03
47484;BMP280;54076;50.322;18.650;2022-11-18T00:39:32;97800.67;;;4.00
47484;BMP280;54076;50.322;18.650;2022-11-18T00:44:33;97799.24;;;3.81
47484;BMP280;54076;50.322;18.650;2022-11-18T00:49:34;97804.16;;;3.84
47484;BMP280;54076;50.322;18.650;2022-11-18T00:54:35;97800.25;;;3.73
47484;BMP280;54076;50.322;18.650;2022-11-18T00:59:37;97786.44;;;3.69
47484;BMP280;54076;50.322;18.650;2022-11-18T01:04:38;97777.17;;;3.77
47484;BMP280;54076;50.322;18.650;2022-11-18T01:09:39;97769.23;;;3.82
47484;BMP280;54076;50.322;18.650;2022-11-18T01:14:40;97769.25;;;3.86
47484;BMP280;54076;50.322;18.650;2022-11-18T01:19:41;97764.77;;;3.65
47484;BMP280;54076;50.322;18.650;2022-11-18T01:24:42;97757.47;;;3.76
47484;BMP280;54076;50.322;18.650;2022-11-18T01:29:43;97743.53;;;3.83
47484;BMP280;54076;50.322;18.650;2022-11-18T01:34:44;97731.79;;;3.82
47484;BMP280;54076;50.322;18.650;2022-11-18T01:39:45;97727.73;;;3.86
47484;BMP280;54076;50.322;18.650;2022-11-18T01:50:12;97722.36;;;3.95
47484;BMP280;54076;50.322;18.650;2022-11-18T01:55:20;97726.30;;;3.75
47484;BMP280;54076;50.322;18.650;2022-11-18T02:00:23;97722.02;;;3.70
47484;BMP280;54076;50.322;18.650;2022-11-18T02:05:24;97722.29;;;3.70
47484;BMP280;54076;50.322;18.650;2022-11-18T02:10:26;97721.84;;;3.72
47484;BMP280;54076;50.322;18.650;2022-11-18T02:15:45;97715.69;;;3.70
47484;BMP280;54076;50.322;18.650;2022-11-18T02:20:50;97707.14;;;3.65
47484;BMP280;54076;50.322;18.650;2022-11-18T02:26:27;97701.11;;;3.64
47484;BMP280;54076;50.322;18.650;2022-11-18T02:37:02;97712.29;;;3.56
47484;BMP280;54076;50.322;18.650;2022-11-18T02:42:09;97722.73;;;3.36
47484;BMP280;54076;50.322;18.650;2022-11-18T02:47:14;97728.68;;;3.50
47484;BMP280;54076;50.322;18.650;2022-11-18T02:52:17;97728.02;;;3.50
47484;BMP280;54076;50.322;18.650;2022-11-18T02:57:20;97718.42;;;3.50
47484;BMP280;54076;50.322;18.650;2022-11-18T03:02:22;97727.23;;;3.49
47484;BMP280;54076;50.322;18.650;2022-11-18T03:07:33;97724.05;;;3.52
47484;BMP280;54076;50.322;18.650;2022-11-18T03:12:45;97733.99;;;3.57
47484;BMP280;54076;50.322;18.650;2022-11-18T03:28:49;97717.42;;;3.52
47484;BMP280;54076;50.322;18.650;2022-11-18T03:34:02;97703.39;;;3.23
47484;BMP280;54076;50.322;18.650;2022-11-18T03:39:06;97696.38;;;3.27
47484;BMP280;54076;50.322;18.650;2022-11-18T03:44:22;97697.52;;;3.33
47484;BMP280;54076;50.322;18.650;2022-11-18T03:49:35;97696.85;;;3.38
47484;BMP280;54076;50.322;18.650;2022-11-18T03:54:39;97683.02;;;3.24
47484;BMP280;54076;50.322;18.650;2022-11-18T03:59:52;97677.06;;;3.33
47484;BMP280;54076;50.322;18.650;2022-11-18T04:04:55;97670.74;;;3.26
47484;BMP280;54076;50.322;18.650;2022-11-18T04:10:28;97665.29;;;3.16
47484;BMP280;54076;50.322;18.650;2022-11-18T04:15:29;97668.48;;;3.20
47484;BMP280;54076;50.322;18.650;2022-11-18T04:20:31;97663.39;;;3.45
47484;BMP280;54076;50.322;18.650;2022-11-18T04:25:34;97653.77;;;3.29
47484;BMP280;54076;50.322;18.650;2022-11-18T04:30:36;97658.81;;;3.33
47484;BMP280;54076;50.322;18.650;2022-11-18T04:35:37;97665.51;;;3.10
47484;BMP280;54076;50.322;18.650;2022-11-18T04:40:38;97662.64;;;3.19
47484;BMP280;54076;50.322;18.650;2022-11-18T04:45:38;97650.26;;;3.32
47484;BMP280;54076;50.322;18.650;2022-11-18T04:50:39;97664.98;;;3.21
47484;BMP280;54076;50.322;18.650;2022-11-18T04:55:40;97675.75;;;3.24
47484;BMP280;54076;50.322;18.650;2022-11-18T05:00:41;97680.45;;;3.29
47484;BMP280;54076;50.322;18.650;2022-11-18T05:05:42;97672.06;;;3.23
47484;BMP280;54076;50.322;18.650;2022-11-18T05:10:43;97679.54;;;3.33
47484;BMP280;54076;50.322;18.650;2022-11-18T05:15:44;97686.24;;;3.32
47484;BMP280;54076;50.322;18.650;2022-11-18T05:20:45;97683.90;;;2.99
47484;BMP280;54076;50.322;18.650;2022-11-18T05:25:46;97677.16;;;2.99
47484;BMP280;54076;50.322;18.650;2022-11-18T05:30:47;97679.61;;;2.91
47484;BMP280;54076;50.322;18.650;2022-11-18T05:35:48;97687.11;;;3.07
47484;BMP280;54076;50.322;18.650;2022-11-18T05:40:50;97686.19;;;3.19
47484;BMP280;54076;50.322;18.650;2022-11-18T05:45:51;97695.68;;;3.34
47484;BMP280;54076;50.322;18.650;2022-11-18T05:50:53;97699.23;;;3.17
47484;BMP280;54076;50.322;18.650;2022-11-18T06:01:05;97707.60;;;3.22
47484;BMP280;54076;50.322;18.650;2022-11-18T06:06:08;97715.06;;;3.21
47484;BMP280;54076;50.322;18.650;2022-11-18T06:11:14;97725.51;;;3.31
47484;BMP280;54076;50.322;18.650;2022-11-18T06:16:20;97732.36;;;2.97
47484;BMP280;54076;50.322;18.650;2022-11-18T06:21:23;97732.27;;;2.99
47484;BMP280;54076;50.322;18.650;2022-11-18T06:26:24;97735.90;;;3.03
47484;BMP280;54076;50.322;18.650;2022-11-18T06:31:25;97741.98;;;2.99
47484;BMP280;54076;50.322;18.650;2022-11-18T06:36:26;97747.88;;;3.00
47484;BMP280;54076;50.322;18.650;2022-11-18T06:41:28;97751.52;;;2.86
47484;BMP280;54076;50.322;18.650;2022-11-18T06:46:29;97758.30;;;3.02
47484;BMP280;54076;50.322;18.650;2022-11-18T06:51:48;97771.76;;;2.74
47484;BMP280;54076;50.322;18.650;2022-11-18T06:56:49;97774.43;;;2.85
47484;BMP280;54076;50.322;18.650;2022-11-18T07:01:50;97776.80;;;2.93
47484;BMP280;54076;50.322;18.650;2022-11-18T07:06:52;97775.77;;;3.09
47484;BMP280;54076;50.322;18.650;2022-11-18T07:11:53;97777.56;;;3.05
47484;BMP280;54076;50.322;18.650;2022-11-18T07:16:54;97783.04;;;2.97
47484;BMP280;54076;50.322;18.650;2022-11-18T07:21:55;97775.72;;;2.89
47484;BMP280;54076;50.322;18.650;2022-11-18T07:26:57;97772.82;;;2.98
47484;BMP280;54076;50.322;18.650;2022-11-18T07:31:58;97759.40;;;2.90
47484;BMP280;54076;50.322;18.650;2022-11-18T07:37:00;97772.96;;;3.09
47484;BMP280;54076;50.322;18.650;2022-11-18T07:42:01;97774.88;;;2.79
47484;BMP280;54076;50.322;18.650;2022-11-18T07:47:02;97778.30;;;2.89
47484;BMP280;54076;50.322;18.650;2022-11-18T07:52:03;97768.70;;;2.95
47484;BMP280;54076;50.322;18.650;2022-11-18T07:57:04;97761.96;;;2.93
47484;BMP280;54076;50.322;18.650;2022-11-18T08:02:19;97765.61;;;2.70
47484;BMP280;54076;50.322;18.650;2022-11-18T08:07:20;97769.02;;;2.84
47484;BMP280;54076;50.322;18.650;2022-11-18T08:12:21;97777.21;;;2.79
47484;BMP280;54076;50.322;18.650;2022-11-18T08:17:22;97778.52;;;2.82
47484;BMP280;54076;50.322;18.650;2022-11-18T08:22:23;97783.65;;;2.94
47484;BMP280;54076;50.322;18.650;2022-11-18T08:27:24;97785.11;;;3.09
47484;BMP280;54076;50.322;18.650;2022-11-18T08:32:25;97787.69;;;10.09
47484;BMP280;54076;50.322;18.650;2022-11-18T08:37:26;97779.23;;;9.79
47484;BMP280;54076;50.322;18.650;2022-11-18T08:42:27;97758.64;;;11.33
47484;BMP280;54076;50.322;18.650;2022-11-18T08:47:28;97773.29;;;9.43
47484;BMP280;54076;50.322;18.650;2022-11-18T08:52:29;97771.28;;;10.16
47484;BMP280;54076;50.322;18.650;2022-11-18T08:57:30;97777.77;;;10.14
47484;BMP280;54076;50.322;18.650;2022-11-18T09:02:31;97773.60;;;10.24
47484;BMP280;54076;50.322;18.650;2022-11-18T09:07:32;97769.98;;;11.01
47484;BMP280;54076;50.322;18.650;2022-11-18T09:18:50;97765.33;;;10.26
47484;BMP280;54076;50.322;18.650;2022-11-18T09:23:54;97788.13;;;6.32
47484;BMP280;54076;50.322;18.650;2022-11-18T09:28:56;97788.27;;;4.88
47484;BMP280;54076;50.322;18.650;2022-11-18T09:34:00;97785.86;;;3.84
47484;BMP280;54076;50.322;18.650;2022-11-18T09:39:01;97793.60;;;3.16
47484;BMP280;54076;50.322;18.650;2022-11-18T09:44:39;97794.58;;;2.96
47484;BMP280;54076;50.322;18.650;2022-11-18T09:49:44;97804.15;;;2.78
47484;BMP280;54076;50.322;18.650;2022-11-18T09:54:46;97810.48;;;2.76
47484;BMP280;54076;50.322;18.650;2022-11-18T09:59:47;97822.30;;;2.40
47484;BMP280;54076;50.322;18.650;2022-11-18T10:04:48;97822.05;;;2.61
47484;BMP280;54076;50.322;18.650;2022-11-18T10:09:52;97822.52;;;2.33
47484;BMP280;54076;50.322;18.650;2022-11-18T10:15:21;97829.35;;;2.21
47484;BMP280;54076;50.322;18.650;2022-11-18T10:20:51;97828.82;;;1.94
47484;BMP280;54076;50.322;18.650;2022-11-18T10:25:56;97824.41;;;2.13
47484;BMP280;54076;50.322;18.650;2022-11-18T10:31:09;97829.92;;;2.01
47484;BMP280;54076;50.322;18.650;2022-11-18T10:41:19;97844.79;;;2.08
47484;BMP280;54076;50.322;18.650;2022-11-18T10:46:35;97846.61;;;2.00
47484;BMP280;54076;50.322;18.650;2022-11-18T10:51:43;97852.89;;;1.89
47484;BMP280;54076;50.322;18.650;2022-11-18T10:57:07;97852.08;;;2.02
47484;BMP280;54076;50.322;18.650;2022-11-18T11:07:37;97848.53;;;2.14
47484;BMP280;54076;50.322;18.650;2022-11-18T11:12:43;97857.49;;;2.00
47484;BMP280;54076;50.322;18.650;2022-11-18T11:17:58;97853.02;;;1.92
47484;BMP280;54076;50.322;18.650;2022-11-18T11:23:19;97856.66;;;1.81
47484;BMP280;54076;50.322;18.650;2022-11-18T11:28:43;97849.34;;;1.96
47484;BMP280;54076;50.322;18.650;2022-11-18T11:50:18;97837.52;;;1.59
47484;BMP280;54076;50.322;18.650;2022-11-18T12:01:19;97833.57;;;1.82
47484;BMP280;54076;50.322;18.650;2022-11-18T12:06:22;97833.82;;;1.51
47484;BMP280;54076;50.322;18.650;2022-11-18T12:11:33;97828.52;;;1.57
47484;BMP280;54076;50.322;18.650;2022-11-18T12:17:05;97831.11;;;1.71
47484;BMP280;54076;50.322;18.650;2022-11-18T12:22:07;97837.99;;;1.61
47484;BMP280;54076;50.322;18.650;2022-11-18T12:32:40;97831.88;;;1.86
47484;BMP280;54076;50.322;18.650;2022-11-18T12:37:55;97839.99;;;1.70
47484;BMP280;54076;50.322;18.650;2022-11-18T12:42:57;97854.67;;;1.52
47484;BMP280;54076;50.322;18.650;2022-11-18T12:48:27;97862.14;;;1.73
47484;BMP280;54076;50.322;18.650;2022-11-18T12:53:41;97864.23;;;1.90
47484;BMP280;54076;50.322;18.650;2022-11-18T12:58:48;97863.45;;;2.08
47484;BMP280;54076;50.322;18.650;2022-11-18T13:03:50;97860.09;;;1.78
47484;BMP280;54076;50.322;18.650;2022-11-18T13:08:56;97866.48;;;1.79
47484;BMP280;54076;50.322;18.650;2022-11-18T13:13:58;97869.93;;;1.73
47484;BMP280;54076;50.322;18.650;2022-11-18T13:19:23;97871.88;;;1.50
47484;BMP280;54076;50.322;18.650;2022-11-18T13:24:25;97874.86;;;1.64
47484;BMP280;54076;50.322;18.650;2022-11-18T13:29:44;97878.11;;;1.83
47484;BMP280;54076;50.322;18.650;2022-11-18T13:40:26;97888.22;;;1.83
47484;BMP280;54076;50.322;18.650;2022-11-18T13:45:28;97884.64;;;1.43
47484;BMP280;54076;50.322;18.650;2022-11-18T13:50:37;97893.61;;;1.28
47484;BMP280;54076;50.322;18.650;2022-11-18T13:55:50;97900.80;;;1.44
47484;BMP280;54076;50.322;18.650;2022-11-18T14:01:02;97902.83;;;1.38
47484;BMP280;54076;50.322;18.650;2022-11-18T14:06:06;97915.70;;;1.19
47484;BMP280;54076;50.322;18.650;2022-11-18T14:11:08;97927.05;;;1.41
47484;BMP280;54076;50.322;18.650;2022-11-18T14:21:35;97923.63;;;1.39
47484;BMP280;54076;50.322;18.650;2022-11-18T14:26:39;97930.27;;;1.46
47484;BMP280;54076;50.322;18.650;2022-11-18T14:31:41;97931.71;;;1.56
47484;BMP280;54076;50.322;18.650;2022-11-18T14:36:44;97940.17;;;1.34
47484;BMP280;54076;50.322;18.650;2022-11-18T14:41:46;97934.74;;;1.52
47484;BMP280;54076;50.322;18.650;2022-11-18T14:47:06;97935.70;;;1.33
47484;BMP280;54076;50.322;18.650;2022-11-18T14:52:09;97935.98;;;1.57
47484;BMP280;54076;50.322;18.650;2022-11-18T14:57:15;97944.98;;;1.51
47484;BMP280;54076;50.322;18.650;2022-11-18T15:02:17;97948.27;;;1.36
47484;BMP280;54076;50.322;18.650;2022-11-18T15:07:18;97958.96;;;1.42
47484;BMP280;54076;50.322;18.650;2022-11-18T15:12:19;97963.81;;;0.98
47484;BMP280;54076;50.322;18.650;2022-11-18T15:17:20;97971.04;;;1.00
47484;BMP280;54076;50.322;18.650;2022-11-18T15:22:21;97977.64;;;1.03
47484;BMP280;54076;50.322;18.650;2022-11-18T15:27:22;97982.89;;;1.32
47484;BMP280;54076;50.322;18.650;2022-11-18T15:32:23;97984.48;;;1.17
47484;BMP280;54076;50.322;18.650;2022-11-18T15:37:24;97986.25;;;1.21
47484;BMP280;54076;50.322;18.650;2022-11-18T15:42:25;97978.14;;;1.04
47484;BMP280;54076;50.322;18.650;2022-11-18T15:47:26;97986.58;;;0.95
47484;BMP280;54076;50.322;18.650;2022-11-18T15:52:28;97992.02;;;0.99
47484;BMP280;54076;50.322;18.650;2022-11-18T15:57:29;97992.64;;;0.90
47484;BMP280;54076;50.322;18.650;2022-11-18T16:02:33;97994.23;;;1.02
47484;BMP280;54076;50.322;18.650;2022-11-18T16:07:34;98002.23;;;1.29
47484;BMP280;54076;50.322;18.650;2022-11-18T16:12:35;98013.09;;;1.06
47484;BMP280;54076;50.322;18.650;2022-11-18T16:17:52;98016.54;;;1.13
47484;BMP280;54076;50.322;18.650;2022-11-18T16:22:55;98013.51;;;1.24
47484;BMP280;54076;50.322;18.650;2022-11-18T16:28:06;98025.96;;;1.22
47484;BMP280;54076;50.322;18.650;2022-11-18T16:33:09;98024.04;;;0.93
47484;BMP280;54076;50.322;18.650;2022-11-18T16:38:10;98038.17;;;1.01
47484;BMP280;54076;50.322;18.650;2022-11-18T16:43:12;98042.06;;;1.13
47484;BMP280;54076;50.322;18.650;2022-11-18T16:48:16;98043.64;;;1.05
47484;BMP280;54076;50.322;18.650;2022-11-18T16:53:17;98062.18;;;0.83
47484;BMP280;54076;50.322;18.650;2022-11-18T16:58:19;98065.36;;;0.80
47484;BMP280;54076;50.322;18.650;2022-11-18T17:03:22;98072.23;;;1.06
47484;BMP280;54076;50.322;18.650;2022-11-18T17:08:26;98071.52;;;0.68
47484;BMP280;54076;50.322;18.650;2022-11-18T17:13:30;98078.87;;;0.75
47484;BMP280;54076;50.322;18.650;2022-11-18T17:18:35;98080.86;;;0.92
47484;BMP280;54076;50.322;18.650;2022-11-18T17:23:40;98082.66;;;0.85
47484;BMP280;54076;50.322;18.650;2022-11-18T17:28:42;98087.50;;;0.98
47484;BMP280;54076;50.322;18.650;2022-11-18T17:33:44;98090.86;;;0.92
47484;BMP280;54076;50.322;18.650;2022-11-18T17:38:48;98093.84;;;1.00
47484;BMP280;54076;50.322;18.650;2022-11-18T17:43:53;98101.48;;;1.15
47484;BMP280;54076;50.322;18.650;2022-11-18T17:48:58;98100.88;;;1.00
47484;BMP280;54076;50.322;18.650;2022-11-18T17:54:01;98105.61;;;0.88
47484;BMP280;54076;50.322;18.650;2022-11-18T17:59:03;98108.89;;;0.95
47484;BMP280;54076;50.322;18.650;2022-11-18T18:04:04;98117.61;;;0.96
47484;BMP280;54076;50.322;18.650;2022-11-18T18:09:05;98113.13;;;1.07
47484;BMP280;54076;50.322;18.650;2022-11-18T18:14:08;98112.64;;;0.84
47484;BMP280;54076;50.322;18.650;2022-11-18T18:19:20;98117.97;;;1.09
47484;BMP280;54076;50.322;18.650;2022-11-18T18:24:25;98119.88;;;0.94
47484;BMP280;54076;50.322;18.650;2022-11-18T18:29:29;98127.87;;;0.98
47484;BMP280;54076;50.322;18.650;2022-11-18T18:34:33;98129.06;;;0.79
47484;BMP280;54076;50.322;18.650;2022-11-18T18:39:34;98133.91;;;0.81
47484;BMP280;54076;50.322;18.650;2022-11-18T18:44:42;98145.79;;;0.69
47484;BMP280;54076;50.322;18.650;2022-11-18T18:50:04;98145.79;;;0.89
47484;BMP280;54076;50.322;18.650;2022-11-18T18:55:06;98145.91;;;1.04
47484;BMP280;54076;50.322;18.650;2022-11-18T19:00:08;98148.80;;;0.96
47484;BMP280;54076;50.322;18.650;2022-11-18T19:05:15;98151.23;;;0.85
47484;BMP280;54076;50.322;18.650;2022-11-18T19:10:33;98162.76;;;0.99
47484;BMP280;54076;50.322;18.650;2022-11-18T19:15:38;98161.14;;;1.06
47484;BMP280;54076;50.322;18.650;2022-11-18T19:20:47;98158.17;;;1.03
47484;BMP280;54076;50.322;18.650;2022-11-18T19:25:48;98164.95;;;0.78
47484;BMP280;54076;50.322;18.650;2022-11-18T19:30:58;98164.31;;;0.91
47484;BMP280;54076;50.322;18.650;2022-11-18T19:36:02;98169.38;;;0.92
47484;BMP280;54076;50.322;18.650;2022-11-18T19:41:06;98165.24;;;0.68
47484;BMP280;54076;50.322;18.650;2022-11-18T19:46:08;98161.88;;;0.66
47484;BMP280;54076;50.322;18.650;2022-11-18T19:51:13;98182.18;;;0.82
47484;BMP280;54076;50.322;18.650;2022-11-18T19:56:19;98176.36;;;1.00
47484;BMP280;54076;50.322;18.650;2022-11-18T20:01:26;98179.63;;;0.86
47484;BMP280;54076;50.322;18.650;2022-11-18T20:06:30;98189.49;;;0.92
47484;BMP280;54076;50.322;18.650;2022-11-18T20:11:33;98205.20;;;0.79
47484;BMP280;54076;50.322;18.650;2022-11-18T20:16:35;98212.83;;;0.89
47484;BMP280;54076;50.322;18.650;2022-11-18T20:21:37;98215.24;;;0.90
47484;BMP280;54076;50.322;18.650;2022-11-18T20:26:40;98211.16;;;1.00
47484;BMP280;54076;50.322;18.650;2022-11-18T20:31:41;98212.40;;;0.94
47484;BMP280;54076;50.322;18.650;2022-11-18T20:36:42;98200.58;;;0.97
47484;BMP280;54076;50.322;18.650;2022-11-18T20:41:44;98216.25;;;0.98
47484;BMP280;54076;50.322;18.650;2022-11-18T20:47:11;98225.21;;;0.84
47484;BMP280;54076;50.322;18.650;2022-11-18T20:52:22;98218.33;;;0.94
47484;BMP280;54076;50.322;18.650;2022-11-18T20:57:23;98224.94;;;0.95
47484;BMP280;54076;50.322;18.650;2022-11-18T21:02:33;98236.18;;;0.82
47484;BMP280;54076;50.322;18.650;2022-11-18T21:07:48;98233.83;;;0.85
47484;BMP280;54076;50.322;18.650;2022-11-18T21:12:50;98244.39;;;0.82
47484;BMP280;54076;50.322;18.650;2022-11-18T21:18:10;98243.04;;;0.75
47484;BMP280;54076;50.322;18.650;2022-11-18T21:23:12;98249.80;;;0.78
47484;BMP280;54076;50.322;18.650;2022-11-18T21:28:16;98252.98;;;0.71
47484;BMP280;54076;50.322;18.650;2022-11-18T21:33:17;98263.29;;;0.57
47484;BMP280;54076;50.322;18.650;2022-11-18T21:38:20;98263.95;;;0.70
47484;BMP280;54076;50.322;18.650;2022-11-18T21:43:22;98275.46;;;0.79
47484;BMP280;54076;50.322;18.650;2022-11-18T21:48:23;98286.98;;;0.65
47484;BMP280;54076;50.322;18.650;2022-11-18T21:53:27;98277.81;;;0.67
47484;BMP280;54076;50.322;18.650;2022-11-18T21:58:29;98277.54;;;0.71
47484;BMP280;54076;50.322;18.650;2022-11-18T22:03:33;98272.17;;;0.72
47484;BMP280;54076;50.322;18.650;2022-11-18T22:08:36;98272.60;;;0.73
47484;BMP280;54076;50.322;18.650;2022-11-18T22:13:41;98285.72;;;0.85
47484;BMP280;54076;50.322;18.650;2022-11-18T22:18:46;98295.14;;;0.62
47484;BMP280;54076;50.322;18.650;2022-11-18T22:23:50;98293.64;;;0.56
47484;BMP280;54076;50.322;18.650;2022-11-18T22:28:56;98299.79;;;0.58
47484;BMP280;54076;50.322;18.650;2022-11-18T22:33:58;98301.50;;;0.73
47484;BMP280;54076;50.322;18.650;2022-11-18T22:39:02;98303.86;;;0.81
47484;BMP280;54076;50.322;18.650;2022-11-18T22:44:13;98300.18;;;0.66
47484;BMP280;54076;50.322;18.650;2022-11-18T22:49:17;98302.02;;;0.91
47484;BMP280;54076;50.322;18.650;2022-11-18T22:54:18;98314.73;;;0.58
47484;BMP280;54076;50.322;18.650;2022-11-18T22:59:19;98324.37;;;0.72
47484;BMP280;54076;50.322;18.650;2022-11-18T23:04:20;98328.62;;;0.75
47484;BMP280;54076;50.322;18.650;2022-11-18T23:09:24;98335.08;;;0.65
47484;BMP280;54076;50.322;18.650;2022-11-18T23:14:28;98329.18;;;0.83
47484;BMP280;54076;50.322;18.650;2022-11-18T23:19:50;98331.19;;;0.84
47484;BMP280;54076;50.322;18.650;2022-11-18T23:25:04;98338.22;;;0.69
47484;BMP280;54076;50.322;18.650;2022-11-18T23:30:11;98330.55;;;0.79
47484;BMP280;54076;50.322;18.650;2022-11-18T23:35:12;98339.15;;;0.84
47484;BMP280;54076;50.322;18.650;2022-11-18T23:40:14;98338.50;;;0.84
47484;BMP280;54076;50.322;18.650;2022-11-18T23:45:15;98332.39;;;0.93
47484;BMP280;54076;50.322;18.650;2022-11-18T23:50:19;98333.73;;;0.78
47484;BMP280;54076;50.322;18.650;2022-11-18T23:55:23;98343.21;;;0.76
